Time;durP1;ratioP1;P1;durP2;ratioP2;P2;SDS_P1;SDS_P2;PMS_P1;PMS_P2;Temp;Humidity;BMP_temperature;BMP_pressure;BME280_temperature;BME280_humidity;BME280_pressure;Samples;Min_cycle;Max_cycle;Signal;HPM_P1;HPM_P2
2021/08/20 00:00:49;;;;;;;5.82;5.22;;;;;;;29.30;51.79;101017.03;144994;632;5003;-81
2021/08/20 00:03:16;;;;;;;5.75;5.15;;;;;;;29.30;51.91;101022.38;144994;570;5002;-80
2021/08/20 00:05:42;;;;;;;6.18;5.57;;;;;;;29.29;51.73;101021.50;144994;579;5002;-81
2021/08/20 00:08:08;;;;;;;10.23;5.70;;;;;;;29.23;52.37;101031.62;144994;647;5002;-80
2021/08/20 00:10:35;;;;;;;6.40;5.70;;;;;;;29.22;52.27;101032.53;144994;604;5002;-79
2021/08/20 00:13:02;;;;;;;6.80;6.10;;;;;;;29.24;52.04;101028.88;144993;666;5002;-79
2021/08/20 00:15:30;;;;;;;7.30;6.10;;;;;;;29.25;51.76;101027.91;144994;621;5002;-79
2021/08/20 00:17:57;;;;;;;6.70;5.72;;;;;;;29.18;52.21;101038.94;144994;578;5002;-80
2021/08/20 00:20:25;;;;;;;6.47;5.70;;;;;;;29.15;52.24;101033.72;144994;600;5002;-81
2021/08/20 00:22:52;;;;;;;6.50;5.90;;;;;;;29.15;52.13;101037.25;144994;593;5002;-80
2021/08/20 00:25:18;;;;;;;8.52;5.82;;;;;;;29.14;52.11;101038.19;144994;643;5002;-81
2021/08/20 00:27:45;;;;;;;7.43;5.90;;;;;;;29.16;51.94;101044.34;144994;645;5002;-79
2021/08/20 00:30:12;;;;;;;8.38;5.93;;;;;;;29.18;51.91;101034.44;144994;563;5002;-81
2021/08/20 00:32:38;;;;;;;8.00;6.28;;;;;;;29.20;52.04;101040.63;144994;604;5002;-79
2021/08/20 00:35:05;;;;;;;7.87;5.60;;;;;;;29.22;51.65;101043.22;144994;569;5002;-80
2021/08/20 00:37:33;;;;;;;7.82;6.20;;;;;;;29.24;51.83;101034.22;144994;606;5002;-80
2021/08/20 00:39:59;;;;;;;8.38;5.80;;;;;;;29.17;52.10;101040.72;144994;569;5002;-81
2021/08/20 00:42:26;;;;;;;8.57;6.47;;;;;;;29.08;52.05;101039.31;144994;592;5002;-80
2021/08/20 00:44:53;;;;;;;6.62;5.37;;;;;;;29.09;51.85;101046.38;144994;591;5002;-81
2021/08/20 00:47:19;;;;;;;7.37;6.12;;;;;;;29.12;52.11;101034.72;144994;610;5002;-80
2021/08/20 00:49:46;;;;;;;6.37;5.82;;;;;;;29.15;52.11;101042.59;144994;575;5002;-81
2021/08/20 00:52:13;;;;;;;7.25;5.50;;;;;;;29.17;52.06;101037.19;144994;590;5002;-80
2021/08/20 00:54:40;;;;;;;7.70;5.80;;;;;;;29.20;51.75;101042.44;144994;587;5002;-80
2021/08/20 00:57:06;;;;;;;8.73;6.15;;;;;;;29.23;51.68;101039.63;144994;574;5002;-80
2021/08/20 00:59:33;;;;;;;7.82;5.65;;;;;;;29.24;51.50;101039.56;144994;565;5002;-80
2021/08/20 01:02:01;;;;;;;8.40;5.82;;;;;;;29.27;51.83;101038.53;144994;586;5002;-79
2021/08/20 01:04:28;;;;;;;6.85;5.82;;;;;;;29.28;51.92;101037.63;144994;575;5002;-81
2021/08/20 01:06:56;;;;;;;6.20;5.57;;;;;;;29.27;52.00;101041.22;144994;596;5002;-81
2021/08/20 01:09:23;;;;;;;6.37;5.75;;;;;;;29.29;51.89;101039.38;144993;653;5002;-81
2021/08/20 01:11:51;;;;;;;7.05;5.75;;;;;;;29.30;51.56;101041.97;144994;576;5002;-80
2021/08/20 01:14:37;;;;;;;8.10;5.85;;;;;;;29.29;51.67;101029.53;144994;587;5002;-80
2021/08/20 01:17:08;;;;;;;6.75;5.75;;;;;;;29.29;51.79;101026.84;144993;628;5002;-80
2021/08/20 01:19:37;;;;;;;7.55;5.57;;;;;;;29.28;51.99;101022.44;144994;639;5002;-81
2021/08/20 01:22:08;;;;;;;6.82;5.70;;;;;;;29.29;51.80;101024.19;144994;589;5002;-81
2021/08/20 01:24:35;;;;;;;8.77;6.05;;;;;;;29.30;52.20;101017.03;144994;609;5002;-80
2021/08/20 01:27:01;;;;;;;6.82;6.22;;;;;;;29.32;51.69;101025.88;144994;596;5002;-80
2021/08/20 01:29:27;;;;;;;7.10;5.43;;;;;;;29.30;51.97;101020.59;144994;598;5002;-80
2021/08/20 01:31:54;;;;;;;7.45;6.12;;;;;;;29.30;51.94;101017.03;144994;649;5002;-79
2021/08/20 01:34:21;;;;;;;7.70;5.70;;;;;;;29.27;52.26;101012.69;144994;572;5002;-80
2021/08/20 01:36:47;;;;;;;6.15;5.60;;;;;;;29.26;52.59;101018.97;144994;569;5002;-80
2021/08/20 01:39:14;;;;;;;6.35;5.75;;;;;;;29.24;52.31;101015.50;144994;595;5002;-79
2021/08/20 01:41:40;;;;;;;7.32;6.20;;;;;;;29.23;52.13;101013.75;144994;594;5002;-80
2021/08/20 01:44:06;;;;;;;8.52;5.60;;;;;;;29.25;52.36;101014.56;144994;629;5002;-80
2021/08/20 01:46:33;;;;;;;7.12;6.28;;;;;;;29.25;52.25;101016.37;144994;601;5002;-80
2021/08/20 01:49:03;;;;;;;6.57;5.60;;;;;;;29.25;52.07;101017.22;144994;596;5002;-79
2021/08/20 01:51:31;;;;;;;6.60;5.95;;;;;;;29.25;51.92;101019.03;144994;563;5002;-80
2021/08/20 01:54:02;;;;;;;9.10;6.45;;;;;;;29.24;52.17;101014.62;144994;574;5002;-79
2021/08/20 01:56:31;;;;;;;8.10;5.68;;;;;;;29.24;52.24;101018.19;144994;615;5002;-78
2021/08/20 01:58:58;;;;;;;6.95;6.25;;;;;;;29.24;52.25;101026.19;144994;627;5002;-77
2021/08/20 02:01:26;;;;;;;8.10;6.07;;;;;;;29.24;51.99;101025.31;144994;586;5002;-86
2021/08/20 02:03:53;;;;;;;7.15;5.85;;;;;;;29.26;52.31;101024.31;144994;589;5002;-80
2021/08/20 02:06:20;;;;;;;7.25;6.05;;;;;;;29.24;51.99;101027.97;144993;595;5002;-81
2021/08/20 02:08:47;;;;;;;7.18;5.95;;;;;;;29.22;52.43;101022.69;144994;652;5002;-80
2021/08/20 02:11:14;;;;;;;6.47;5.87;;;;;;;29.24;52.25;101022.63;144994;595;5002;-79
2021/08/20 02:13:40;;;;;;;7.43;5.53;;;;;;;29.27;52.27;101033.19;144994;601;5002;-80
2021/08/20 02:16:07;;;;;;;10.25;5.87;;;;;;;29.18;52.14;101028.25;144994;585;5002;-79
2021/08/20 02:18:34;;;;;;;7.12;5.72;;;;;;;29.16;52.30;101032.75;144994;574;5002;-80
2021/08/20 02:21:01;;;;;;;9.00;5.90;;;;;;;29.13;52.32;101028.44;144994;600;5002;-81
2021/08/20 02:23:28;;;;;;;8.40;5.50;;;;;;;29.10;52.45;101025.91;144994;585;5002;-81
2021/08/20 02:25:55;;;;;;;7.72;5.87;;;;;;;29.11;52.41;101033.84;144994;565;5002;-79
2021/08/20 02:28:22;;;;;;;8.25;6.15;;;;;;;29.12;52.44;101029.38;144994;590;5002;-81
2021/08/20 02:30:50;;;;;;;7.00;5.70;;;;;;;29.06;52.42;101030.47;144994;610;5002;-80
2021/08/20 02:33:16;;;;;;;7.03;5.97;;;;;;;29.04;52.38;101031.50;144994;582;5002;-80
2021/08/20 02:35:42;;;;;;;7.85;6.30;;;;;;;28.99;52.15;101030.84;144994;642;5002;-79
2021/08/20 02:38:09;;;;;;;8.63;6.25;;;;;;;28.98;52.37;101037.09;144993;587;5002;-80
2021/08/20 02:40:35;;;;;;;7.55;6.45;;;;;;;28.98;52.44;101034.44;144994;566;5002;-81
2021/08/20 02:43:02;;;;;;;7.07;5.90;;;;;;;28.98;52.16;101039.78;144994;588;5002;-80
2021/08/20 02:45:30;;;;;;;7.68;6.07;;;;;;;28.93;52.65;101037.28;144994;589;5002;-81
2021/08/20 02:47:56;;;;;;;8.25;6.18;;;;;;;28.86;52.79;101047.37;144994;565;5002;-80
2021/08/20 02:50:22;;;;;;;8.63;6.20;;;;;;;28.82;52.97;101043.06;144994;569;5002;-80
2021/08/20 02:52:49;;;;;;;8.23;5.85;;;;;;;28.77;52.92;101053.94;144994;589;5002;-79
2021/08/20 02:55:15;;;;;;;7.25;5.97;;;;;;;28.67;53.90;101065.97;144994;566;5002;-80
2021/08/20 02:57:42;;;;;;;6.20;5.60;;;;;;;28.53;54.76;101053.13;144994;628;5002;-81
2021/08/20 03:00:09;;;;;;;9.40;6.10;;;;;;;28.36;55.40;101058.25;144994;573;5003;-80
2021/08/20 03:02:36;;;;;;;7.43;6.45;;;;;;;28.32;54.17;101054.84;144994;624;5002;-80
2021/08/20 03:05:02;;;;;;;7.40;5.90;;;;;;;28.32;53.96;101059.31;144994;593;5002;-80
2021/08/20 03:07:29;;;;;;;10.50;6.35;;;;;;;28.21;54.44;101057.94;144993;597;5002;-80
2021/08/20 03:09:56;;;;;;;7.35;5.62;;;;;;;28.32;54.32;101059.31;144994;619;5002;-78
2021/08/20 03:12:37;;;;;;;;;;;;;;;;;;;;;
2021/08/20 03:15:06;;;;;;;8.52;5.45;;;;;;;28.48;54.24;101059.59;144994;612;5004;-80
2021/08/20 03:17:32;;;;;;;7.80;5.80;;;;;;;28.50;54.05;101068.41;144994;607;4571;-80
2021/08/20 03:20:09;;;;;;;8.32;6.22;;;;;;;28.54;53.97;101070.87;144994;692;4574;-81
2021/08/20 03:22:37;;;;;;;7.90;5.60;;;;;;;28.62;53.73;101075.06;144993;562;6000;-79
2021/08/20 03:25:03;;;;;;;7.90;5.95;;;;;;;28.69;53.29;101076.59;144992;566;6002;-79
2021/08/20 03:27:30;;;;;;;6.72;6.12;;;;;;;28.71;53.23;101072.03;144992;566;6002;-80
2021/08/20 03:29:56;;;;;;;16.37;6.30;;;;;;;28.73;53.05;101065.72;144992;589;6002;-80
2021/08/20 03:32:23;;;;;;;8.82;5.87;;;;;;;28.76;53.05;101067.37;144992;610;6002;-79
2021/08/20 03:34:51;;;;;;;8.30;5.95;;;;;;;28.80;52.88;101071.66;144992;593;6002;-79
2021/08/20 03:37:18;;;;;;;10.35;6.75;;;;;;;28.83;52.92;101060.00;144992;601;6002;-80
2021/08/20 03:39:45;;;;;;;9.82;6.30;;;;;;;28.80;53.29;101063.66;144992;579;6002;-80
2021/08/20 03:42:12;;;;;;;9.85;6.60;;;;;;;28.73;54.05;101071.06;144992;617;6002;-81
2021/08/20 03:44:38;;;;;;;10.90;6.30;;;;;;;28.69;54.27;101080.09;144992;569;6002;-78
2021/08/20 03:47:05;;;;;;;6.87;6.00;;;;;;;28.68;53.27;101075.72;144992;590;6002;-80
2021/08/20 03:49:31;;;;;;;10.32;6.53;;;;;;;28.68;53.44;101075.72;144992;569;6002;-81
2021/08/20 03:51:57;;;;;;;13.05;6.82;;;;;;;28.69;53.27;101082.78;144992;577;6002;-80
2021/08/20 03:54:24;;;;;;;9.90;6.37;;;;;;;28.72;53.40;101079.12;144992;586;6002;-78
2021/08/20 03:56:50;;;;;;;13.82;6.95;;;;;;;28.72;53.48;101079.12;144992;597;6002;-80
2021/08/20 03:59:17;;;;;;;9.77;7.07;;;;;;;28.72;53.20;101079.12;144991;740;6003;-81
2021/08/20 04:01:45;;;;;;;8.27;6.85;;;;;;;28.71;53.94;101090.72;144992;585;6002;-81
2021/08/20 04:04:12;;;;;;;9.63;6.65;;;;;;;28.71;53.63;101093.41;144992;654;6002;-79
2021/08/20 04:06:39;;;;;;;9.77;6.85;;;;;;;28.72;53.50;101093.34;144992;684;6003;-81
2021/08/20 04:09:05;;;;;;;10.77;6.65;;;;;;;28.73;53.72;101086.19;144992;576;6002;-81
2021/08/20 04:11:32;;;;;;;11.52;7.35;;;;;;;28.69;53.95;101082.78;144992;652;6002;-79
2021/08/20 04:14:02;;;;;;;7.85;6.95;;;;;;;28.72;53.49;101093.34;144992;571;6002;-79
2021/08/20 04:16:36;;;;;;;9.43;6.53;;;;;;;28.69;54.34;101089.94;144992;633;6002;-80
2021/08/20 04:19:03;;;;;;;9.85;6.65;;;;;;;28.70;53.77;101099.69;144992;588;6002;-81
2021/08/20 04:21:30;;;;;;;10.73;7.18;;;;;;;28.72;54.29;101097.81;144992;696;6002;-80
2021/08/20 04:23:57;;;;;;;10.98;7.45;;;;;;;28.73;53.94;101095.09;144992;694;6002;-79
2021/08/20 04:26:23;;;;;;;12.10;7.20;;;;;;;28.76;53.93;101104.75;144992;572;6002;-81
2021/08/20 04:28:51;;;;;;;8.82;7.25;;;;;;;28.76;53.84;101108.31;144992;587;6002;-80
2021/08/20 04:31:20;;;;;;;15.82;7.90;;;;;;;28.79;53.99;101112.66;144992;569;6002;-80
2021/08/20 04:33:46;;;;;;;11.93;7.15;;;;;;;28.76;53.78;101112.78;144992;620;6002;-80
2021/08/20 04:36:14;;;;;;;10.25;6.75;;;;;;;28.73;53.56;101115.56;144992;574;6002;-79
2021/08/20 04:38:41;;;;;;;7.87;6.62;;;;;;;28.65;53.33;101117.69;144992;577;6002;-80
2021/08/20 04:41:08;;;;;;;9.00;6.22;;;;;;;28.65;53.93;101121.25;144992;580;6002;-81
2021/08/20 04:43:36;;;;;;;11.38;6.60;;;;;;;28.69;53.54;101124.66;144992;586;6002;-80
2021/08/20 04:46:02;;;;;;;8.95;6.35;;;;;;;28.72;53.69;101132.56;144992;582;6002;-83
2021/08/20 04:48:28;;;;;;;7.72;6.93;;;;;;;28.69;52.96;101135.34;144992;602;6002;-80
2021/08/20 04:50:56;;;;;;;11.90;6.93;;;;;;;28.67;53.62;101138.06;144992;625;6002;-80
2021/08/20 04:53:27;;;;;;;13.55;7.32;;;;;;;28.67;53.60;101132.72;144991;582;6002;-81
2021/08/20 04:55:54;;;;;;;7.93;6.62;;;;;;;28.72;53.47;101124.53;144992;593;6002;-79
2021/08/20 04:58:20;;;;;;;7.78;6.85;;;;;;;28.74;53.01;101130.69;144992;570;6002;-79
2021/08/20 05:00:47;;;;;;;8.88;6.70;;;;;;;28.71;53.06;101125.44;144992;625;6002;-80
2021/08/20 05:03:14;;;;;;;8.02;6.40;;;;;;;28.69;53.23;101127.31;144992;679;6002;-82
2021/08/20 05:05:44;;;;;;;9.25;6.82;;;;;;;28.59;53.23;101132.16;144992;612;6002;-79
2021/08/20 05:08:11;;;;;;;13.05;6.82;;;;;;;28.56;53.22;101129.56;144992;570;6002;-79
2021/08/20 05:10:39;;;;;;;10.70;6.62;;;;;;;28.56;53.17;101132.25;144992;658;6002;-81
2021/08/20 05:13:06;;;;;;;11.45;7.10;;;;;;;28.56;53.01;101135.78;144991;574;6002;-81
2021/08/20 05:15:32;;;;;;;9.65;7.10;;;;;;;28.56;53.18;101142.94;144992;575;6002;-80
2021/08/20 05:17:59;;;;;;;8.70;7.03;;;;;;;28.65;53.05;101147.06;144992;583;6002;-80
2021/08/20 05:20:26;;;;;;;10.32;7.05;;;;;;;28.65;53.03;101147.06;144992;571;6002;-79
2021/08/20 05:22:53;;;;;;;9.68;7.40;;;;;;;28.68;53.03;101152.28;144992;688;6002;-80
2021/08/20 05:25:22;;;;;;;10.20;7.45;;;;;;;28.70;53.04;101153.13;144992;590;6002;-81
2021/08/20 05:27:49;;;;;;;7.90;6.82;;;;;;;28.72;53.01;101151.25;144992;678;6002;-80
2021/08/20 05:30:17;;;;;;;13.27;7.20;;;;;;;28.75;53.17;101152.00;144992;652;6002;-80
2021/08/20 05:32:44;;;;;;;10.57;8.15;;;;;;;28.79;53.21;101144.72;144991;566;6002;-79
2021/08/20 05:35:13;;;;;;;10.27;8.07;;;;;;;28.69;54.22;101151.38;144992;580;6002;-80
2021/08/20 05:37:39;;;;;;;10.75;8.23;;;;;;;28.72;53.68;101153.91;144992;576;6002;-79
2021/08/20 05:40:07;;;;;;;9.65;8.38;;;;;;;28.75;53.50;101159.13;144992;596;6002;-78
2021/08/20 05:42:33;;;;;;;12.85;8.05;;;;;;;28.80;54.60;101162.50;144992;629;6002;-81
2021/08/20 05:45:00;;;;;;;7.93;7.07;;;;;;;28.80;53.85;101157.16;144992;618;6002;-79
2021/08/20 05:47:28;;;;;;;9.82;7.15;;;;;;;28.89;53.93;101158.56;144992;634;6002;-79
2021/08/20 05:49:54;;;;;;;8.10;6.37;;;;;;;28.98;53.57;101157.34;144992;625;6002;-80
2021/08/20 05:52:21;;;;;;;11.02;6.85;;;;;;;29.02;54.01;101153.62;144992;595;6002;-80
2021/08/20 05:54:47;;;;;;;13.73;7.28;;;;;;;28.99;53.83;101165.31;144992;656;6002;-80
2021/08/20 05:57:14;;;;;;;12.23;7.03;;;;;;;29.02;54.11;101158.97;144992;705;6002;-80
2021/08/20 05:59:40;;;;;;;8.02;6.15;;;;;;;29.01;54.04;101168.78;144992;697;6002;-79
2021/08/20 06:02:07;;;;;;;10.48;6.65;;;;;;;28.88;55.22;101168.41;144991;576;6002;-80
2021/08/20 06:04:34;;;;;;;6.68;6.07;;;;;;;28.88;54.45;101171.06;144992;620;6002;-80
2021/08/20 06:07:00;;;;;;;10.32;6.43;;;;;;;28.96;55.52;101178.78;144992;590;6002;-80
2021/08/20 06:09:27;;;;;;;7.45;6.43;;;;;;;28.90;54.39;101174.53;144992;605;6002;-79
2021/08/20 06:11:53;;;;;;;9.90;6.00;;;;;;;28.96;54.17;101176.13;144992;571;6002;-79
2021/08/20 06:14:20;;;;;;;6.57;5.75;;;;;;;29.06;54.46;101180.13;144992;594;6002;-80
2021/08/20 06:16:46;;;;;;;8.98;6.15;;;;;;;29.15;54.45;101178.91;144992;571;6002;-79
2021/08/20 06:19:13;;;;;;;12.18;7.20;;;;;;;29.17;54.35;101184.19;144992;612;6002;-78
2021/08/20 06:21:40;;;;;;;8.80;7.03;;;;;;;29.10;54.51;101184.44;144992;600;6003;-79
2021/08/20 06:24:06;;;;;;;11.63;6.70;;;;;;;29.09;54.17;101190.72;144992;591;6002;-80
2021/08/20 06:26:33;;;;;;;7.60;5.32;;;;;;;29.08;54.21;101188.09;144992;676;6002;-80
2021/08/20 06:28:59;;;;;;;7.30;4.78;;;;;;;28.94;53.93;101194.03;144992;594;6002;-80
2021/08/20 06:31:26;;;;;;;5.68;4.80;;;;;;;28.80;53.12;101191.03;144992;577;6002;-79
2021/08/20 06:33:53;;;;;;;5.30;4.60;;;;;;;28.76;53.68;101195.59;144992;643;6002;-79
2021/08/20 06:36:20;;;;;;;7.70;4.72;;;;;;;28.83;53.20;101188.22;144992;581;6002;-81
2021/08/20 06:38:46;;;;;;;8.85;4.47;;;;;;;28.56;53.05;101191.84;144992;678;6002;-82
2021/08/20 06:41:13;;;;;;;5.45;4.10;;;;;;;28.58;52.43;101190.03;144992;577;6002;-80
2021/08/20 06:43:40;;;;;;;4.95;4.50;;;;;;;28.51;52.51;101207.19;144992;581;6002;-80
2021/08/20 06:46:06;;;;;;;5.12;4.22;;;;;;;28.40;52.39;101201.38;144992;576;6002;-79
2021/08/20 06:48:32;;;;;;;7.40;4.00;;;;;;;28.29;52.07;101195.56;144992;606;6002;-81
2021/08/20 06:50:59;;;;;;;5.05;4.15;;;;;;;28.31;51.41;101196.37;144992;650;6002;-81
2021/08/20 06:53:25;;;;;;;6.45;3.95;;;;;;;28.41;52.50;101205.78;144992;585;6002;-80
2021/08/20 06:55:52;;;;;;;5.15;4.35;;;;;;;28.33;52.21;101202.53;144992;588;6002;-80
2021/08/20 06:58:18;;;;;;;6.15;4.55;;;;;;;28.47;52.30;101210.03;144992;602;6002;-80
2021/08/20 07:00:45;;;;;;;5.55;4.18;;;;;;;28.45;52.14;101203.88;144992;632;6002;-80
2021/08/20 07:03:14;;;;;;;4.82;3.85;;;;;;;28.49;51.55;101216.19;144992;565;6002;-80
2021/08/20 07:05:40;;;;;;;5.53;4.50;;;;;;;28.42;52.16;101215.53;144992;629;6003;-81
2021/08/20 07:08:07;;;;;;;6.93;4.75;;;;;;;28.52;52.33;101216.06;144992;573;6002;-79
2021/08/20 07:10:34;;;;;;;7.78;4.40;;;;;;;28.51;51.62;101223.22;144992;571;6002;-78
2021/08/20 07:13:00;;;;;;;5.95;3.95;;;;;;;28.28;51.54;101229.38;144992;655;6003;-78
2021/08/20 07:15:27;;;;;;;7.18;3.83;;;;;;;28.35;51.99;101220.25;144991;587;6002;-79
2021/08/20 07:17:54;;;;;;;6.87;3.80;;;;;;;28.34;52.10;101223.81;144992;569;6002;-79
2021/08/20 07:20:20;;;;;;;5.25;4.00;;;;;;;28.36;51.79;101227.34;144992;570;6002;-79
2021/08/20 07:22:46;;;;;;;6.25;3.90;;;;;;;28.36;51.45;101221.09;144992;570;6002;-79
2021/08/20 07:25:13;;;;;;;5.82;3.40;;;;;;;28.41;50.94;101225.34;144992;571;6002;-80
2021/08/20 07:27:40;;;;;;;7.40;3.40;;;;;;;28.28;50.62;101225.84;144992;574;6002;-81
2021/08/20 07:30:07;;;;;;;5.65;3.60;;;;;;;28.21;49.99;101239.41;144992;585;6002;-81
2021/08/20 07:32:34;;;;;;;4.87;3.75;;;;;;;28.27;50.71;101227.66;144992;593;6002;-79
2021/08/20 07:35:00;;;;;;;9.27;3.80;;;;;;;28.30;50.55;101232.00;144992;601;6002;-79
2021/08/20 07:37:26;;;;;;;4.37;3.20;;;;;;;28.39;50.00;101229.87;144992;639;6002;-80
2021/08/20 07:39:54;;;;;;;5.50;3.60;;;;;;;28.50;49.63;101234.81;144992;608;6002;-80
2021/08/20 07:42:20;;;;;;;4.75;3.10;;;;;;;28.47;49.21;101244.75;144992;709;6002;-79
2021/08/20 07:44:47;;;;;;;5.00;3.10;;;;;;;28.40;48.94;101252.12;144992;575;6002;-80
2021/08/20 07:47:14;;;;;;;6.25;3.37;;;;;;;28.37;48.60;101241.53;144991;565;6002;-79
2021/08/20 07:49:40;;;;;;;6.30;3.37;;;;;;;28.33;48.98;101248.81;144992;611;6002;-80
2021/08/20 07:52:07;;;;;;;6.43;3.20;;;;;;;28.23;47.85;101248.22;144992;582;6002;-80
2021/08/20 07:54:34;;;;;;;5.45;3.30;;;;;;;28.26;48.04;101241.94;144992;605;6002;-80
2021/08/20 07:57:00;;;;;;;6.12;3.45;;;;;;;28.34;48.72;101247.84;144992;565;6002;-80
2021/08/20 07:59:28;;;;;;;5.70;3.22;;;;;;;28.36;48.32;101248.69;144992;576;6002;-80
2021/08/20 08:01:54;;;;;;;5.35;3.10;;;;;;;28.26;47.83;101273.09;144992;630;6002;-78
2021/08/20 08:04:21;;;;;;;7.82;3.37;;;;;;;28.27;48.66;101266.81;144992;569;6002;-81
2021/08/20 08:06:47;;;;;;;6.25;3.28;;;;;;;28.34;48.20;101265.69;144992;586;6002;-81
2021/08/20 08:09:14;;;;;;;5.00;3.08;;;;;;;28.36;48.25;101258.47;144992;734;6002;-81
2021/08/20 08:11:40;;;;;;;7.18;3.03;;;;;;;28.40;48.22;101254.78;144992;574;6002;-80
2021/08/20 08:14:06;;;;;;;4.25;3.10;;;;;;;28.33;48.12;101251.47;144992;589;6002;-79
2021/08/20 08:16:44;;;;;;;3.92;3.22;;;;;;;28.36;48.26;101264.72;144992;671;6002;-79
2021/08/20 08:19:14;;;;;;;5.60;3.20;;;;;;;28.32;47.80;101262.19;144992;586;6002;-78
2021/08/20 08:21:46;;;;;;;5.87;3.30;;;;;;;28.45;46.92;101268.84;144992;569;6002;-80
2021/08/20 08:24:34;;;;;;;;;;;;;;;;;;;;;
2021/08/20 08:27:08;;;;;;;4.55;2.97;;;;;;;28.97;46.56;101275.84;144992;584;6004;-80
2021/08/20 08:29:35;;;;;;;3.92;2.85;;;;;;;28.92;46.43;101262.66;144992;618;6004;-79
2021/08/20 08:32:01;;;;;;;5.45;2.75;;;;;;;28.84;44.52;101257.63;144992;596;6012;-80
2021/08/20 08:34:28;;;;;;;6.20;2.95;;;;;;;28.93;44.52;101261.75;144992;584;6004;-80
2021/08/20 08:36:57;;;;;;;4.30;2.97;;;;;;;29.20;45.01;101270.50;144992;584;6004;-80
2021/08/20 08:39:24;;;;;;;6.22;3.17;;;;;;;29.25;44.83;101267.66;144992;610;6004;-80
2021/08/20 08:41:50;;;;;;;6.95;3.00;;;;;;;29.28;44.39;101276.41;144991;599;6000;-80
2021/08/20 08:44:18;;;;;;;7.05;3.22;;;;;;;29.38;44.82;101273.38;144992;607;6002;-79
2021/08/20 08:46:47;;;;;;;3.65;2.95;;;;;;;29.19;45.11;101289.28;144992;584;6002;-80
2021/08/20 08:49:18;;;;;;;6.15;3.22;;;;;;;29.06;44.82;101275.50;144992;580;6002;-80
2021/08/20 08:51:44;;;;;;;9.10;2.87;;;;;;;29.19;45.40;101268.78;144992;576;6002;-80
2021/08/20 08:54:14;;;;;;;5.40;2.90;;;;;;;29.19;45.12;101281.25;144992;565;6002;-79
2021/08/20 08:56:45;;;;;;;4.18;2.50;;;;;;;29.22;45.16;101273.13;144992;670;6002;-79
2021/08/20 08:59:12;;;;;;;8.30;3.85;;;;;;;29.42;44.89;101267.84;144992;598;6002;-82
2021/08/20 09:01:39;;;;;;;5.45;3.08;;;;;;;29.39;43.64;101272.47;144992;592;6002;-80
2021/08/20 09:04:10;;;;;;;6.93;4.70;;;;;;;29.51;43.71;101277.31;144992;563;6002;-79
2021/08/20 09:06:41;;;;;;;9.40;7.00;;;;;;;29.53;43.72;101270.09;144992;575;6002;-80
2021/08/20 09:09:13;;;;;;;20.75;14.15;;;;;;;29.55;44.29;101262.88;144991;594;6002;-80
2021/08/20 09:11:40;;;;;;;13.62;6.70;;;;;;;29.61;43.05;101246.56;144992;664;6002;-79
2021/08/20 09:14:10;;;;;;;6.03;2.80;;;;;;;29.73;42.18;101249.66;144991;586;6002;-80
2021/08/20 09:16:43;;;;;;;5.30;2.97;;;;;;;29.68;42.45;101247.19;144992;577;6002;-78
2021/08/20 09:19:28;;;;;;;3.37;2.62;;;;;;;29.73;43.25;101245.16;144992;577;6002;-80
2021/08/20 09:21:56;;;;;;;7.47;4.10;;;;;;;29.81;43.12;101245.78;144992;675;6004;-81
2021/08/20 09:24:43;;;;;;;4.30;3.42;;;;;;;29.90;42.90;101227.56;144992;565;6004;-79
2021/08/20 09:27:25;;;;;;;5.68;3.22;;;;;;;29.93;43.02;101238.16;144992;580;6004;-79
2021/08/20 09:30:11;;;;;;;6.85;4.43;;;;;;;30.06;42.41;101235.81;144992;635;6004;-80
2021/08/20 09:32:52;;;;;;;9.98;2.80;;;;;;;30.13;42.52;101240.81;144992;571;6004;-79
2021/08/20 09:35:19;;;;;;;4.68;2.70;;;;;;;30.08;40.34;101241.94;144993;608;6000;-79
2021/08/20 09:37:46;;;;;;;4.25;2.87;;;;;;;30.06;41.23;101247.37;144993;651;6002;-79
2021/08/20 09:40:15;;;;;;;5.10;2.80;;;;;;;30.00;41.83;101245.84;144993;577;6002;-80
2021/08/20 09:42:42;;;;;;;5.68;2.87;;;;;;;30.03;41.53;101253.75;144993;574;6002;-80
2021/08/20 09:45:23;;;;;;;3.90;2.92;;;;;;;29.89;42.17;101252.59;144993;570;6002;-80
2021/08/20 09:47:55;;;;;;;5.68;3.33;;;;;;;29.77;42.67;101222.72;144993;570;6002;-81
2021/08/20 09:50:38;;;;;;;6.87;3.20;;;;;;;29.93;42.75;101238.16;144993;576;6002;-81
2021/08/20 09:53:12;;;;;;;6.72;3.03;;;;;;;29.73;43.01;101237.13;144993;590;6002;-80
2021/08/20 09:55:38;;;;;;;;;;;;;;;29.78;42.88;101237.84;144998;913;6002;-79
2021/08/20 09:58:11;;;;;;;4.85;2.87;;;;;;;29.86;42.85;101240.22;144998;596;6012;-79
2021/08/20 10:00:38;;;;;;;6.32;2.42;;;;;;;29.77;42.89;101227.19;144993;599;6002;-79
2021/08/20 10:03:08;;;;;;;5.45;2.72;;;;;;;29.78;43.00;101244.97;144992;598;6002;-80
2021/08/20 10:05:39;;;;;;;3.62;2.85;;;;;;;29.92;43.15;101221.19;144993;580;6002;-80
2021/08/20 10:08:09;;;;;;;4.10;2.72;;;;;;;29.89;42.71;101234.75;144992;627;6002;-81
2021/08/20 10:10:41;;;;;;;4.80;2.70;;;;;;;30.01;42.95;101218.12;144992;605;6002;-79
2021/08/20 10:13:10;;;;;;;6.87;3.50;;;;;;;30.10;42.98;101232.03;144992;581;6002;-81
2021/08/20 10:15:37;;;;;;;4.87;3.10;;;;;;;30.16;42.10;101221.97;144992;569;6002;-79
2021/08/20 10:18:06;;;;;;;10.93;8.25;;;;;;;30.14;41.84;101222.94;144992;577;6002;-78
2021/08/20 10:20:34;;;;;;;5.32;3.17;;;;;;;30.11;42.16;101223.94;144992;591;6002;-80
2021/08/20 10:23:02;;;;;;;5.62;3.20;;;;;;;29.90;42.42;101231.13;144993;575;6002;-80
2021/08/20 10:25:31;;;;;;;6.40;2.97;;;;;;;29.84;42.06;101239.41;144993;573;6002;-79
2021/08/20 10:28:11;;;;;;;6.32;3.40;;;;;;;29.94;42.14;101229.16;144993;587;6002;-80
2021/08/20 10:31:05;;;;;;;6.90;3.65;;;;;;;29.89;42.47;101231.19;144993;564;6002;-78
2021/08/20 10:33:37;;;;;;;4.30;2.87;;;;;;;29.97;41.70;101231.72;144993;577;6002;-81
2021/08/20 10:36:05;;;;;;;5.00;2.80;;;;;;;30.14;42.29;101239.88;144993;624;6002;-79
2021/08/20 10:38:53;;;;;;;5.80;2.70;;;;;;;30.20;41.63;101236.06;144993;566;6002;-78
2021/08/20 10:41:23;;;;;;;6.32;3.87;;;;;;;30.24;41.98;101236.78;144993;628;6000;-78
2021/08/20 10:44:05;;;;;;;7.87;3.85;;;;;;;30.28;41.35;101238.41;144993;609;6002;-79
2021/08/20 10:46:57;;;;;;;8.90;6.43;;;;;;;30.27;41.19;101244.69;144993;583;6002;-79
2021/08/20 10:49:24;;;;;;;4.00;2.70;;;;;;;30.30;41.55;101249.91;144993;578;6000;-79
2021/08/20 10:52:00;;;;;;;3.92;2.97;;;;;;;30.31;41.11;101257.00;144993;583;6002;-80
2021/08/20 10:55:15;;;;;;;6.18;3.05;;;;;;;30.06;41.08;101246.50;144993;586;6002;-80
2021/08/20 10:58:06;;;;;;;3.20;2.72;;;;;;;30.06;41.07;101243.84;144993;593;6002;-81
2021/08/20 11:00:39;;;;;;;5.32;3.22;;;;;;;29.89;41.63;101233.84;144993;560;6004;-79
2021/08/20 11:03:08;;;;;;;6.95;3.12;;;;;;;29.95;41.36;101233.59;144993;608;6002;-80
2021/08/20 11:05:57;;;;;;;5.47;3.40;;;;;;;29.95;41.32;101237.13;144993;564;6002;-81
2021/08/20 11:08:42;;;;;;;4.18;3.03;;;;;;;30.01;41.58;101233.31;144993;630;6004;-79
2021/08/20 11:11:41;;;;;;;5.62;3.35;;;;;;;29.98;41.01;101239.66;144993;635;6005;-79
2021/08/20 11:14:28;;;;;;;3.70;2.80;;;;;;;29.85;40.17;101250.03;144994;621;5004;-80
2021/08/20 11:16:55;;;;;;;3.87;2.87;;;;;;;29.90;40.78;101236.47;144994;574;5004;-79
2021/08/20 11:19:49;;;;;;;6.53;3.10;;;;;;;29.98;40.98;101228.97;144994;594;5005;-81
2021/08/20 11:22:23;;;;;;;4.40;3.15;;;;;;;29.79;41.69;101247.63;144994;584;5002;-80
2021/08/20 11:25:15;;;;;;;4.53;2.72;;;;;;;29.81;41.42;101236.84;144994;601;5002;-82
2021/08/20 11:27:54;;;;;;;8.50;5.37;;;;;;;29.64;42.07;101226.84;144994;564;5002;-79
2021/08/20 11:30:21;;;;;;;5.45;3.22;;;;;;;29.85;41.89;101227.78;144994;575;5002;-80
2021/08/20 11:32:47;;;;;;;9.60;7.28;;;;;;;29.80;41.72;101224.44;144994;564;5002;-81
2021/08/20 11:35:28;;;;;;;4.25;3.55;;;;;;;29.81;41.54;101224.38;144994;626;5002;-81
2021/08/20 11:37:55;;;;;;;4.85;3.05;;;;;;;29.92;42.10;101218.53;144994;605;5002;-80
2021/08/20 11:40:22;;;;;;;5.37;3.20;;;;;;;29.98;41.83;101228.97;144993;587;5002;-80
2021/08/20 11:43:09;;;;;;;4.97;2.80;;;;;;;29.96;42.47;101219.28;144994;608;5002;-79